Time,TemperatureF,DewpointF,PressureIn,WindDirection,WindDirectionDegrees,WindSpeedMPH,WindSpeedGustMPH,Humidity,HourlyPrecipIn,Conditions,Clouds,dailyrainin,SoftwareType,DateUTC
2013-08-14 09:13:00,69.3,40.5,-100.00,NNW,342,0.0,0.0,35,0.00,,,0.00,VWS V14.01,2013-08-14 16:13:00,
2013-08-14 09:18:00,71.1,40.5,-100.00,East,90,0.0,0.0,33,0.00,,,0.00,VWS V14.01,2013-08-14 16:18:00,
2013-08-14 09:23:00,71.4,40.8,-100.00,SSE,159,0.0,4.0,33,0.00,,,0.00,VWS V14.01,2013-08-14 16:23:00,
2013-08-14 09:28:00,72.0,41.3,-100.00,SSW,209,0.0,4.0,33,0.00,,,0.00,VWS V14.01,2013-08-14 16:28:00,
2013-08-14 09:33:00,72.7,41.2,-100.00,West,259,0.0,4.0,32,0.00,,,0.00,VWS V14.01,2013-08-14 16:33:00,
2013-08-14 09:39:00,73.2,41.6,-100.00,South,172,2.7,4.0,32,0.00,,,0.00,VWS V14.01,2013-08-14 16:39:00,
2013-08-14 09:44:00,73.2,41.6,-100.00,SSW,211,0.0,4.0,32,0.00,,,0.00,VWS V14.01,2013-08-14 16:44:00,
2013-08-14 09:49:00,73.2,41.6,-100.00,SSW,208,0.0,4.0,32,0.00,,,0.00,VWS V14.01,2013-08-14 16:49:00,
2013-08-14 09:54:00,73.6,41.1,-100.00,SSE,163,0.0,5.4,31,0.00,,,0.00,VWS V14.01,2013-08-14 16:54:00,
2013-08-14 09:59:00,73.9,41.4,-100.00,SSE,163,0.0,5.4,31,0.00,,,0.00,VWS V14.01,2013-08-14 16:59:00,
2013-08-14 10:04:00,74.5,41.0,-100.00,WNW,293,0.0,0.0,30,0.00,,,0.00,VWS V14.01,2013-08-14 17:04:00,
2013-08-14 10:10:00,74.8,41.4,-100.00,ENE,62,2.2,3.6,30,0.00,,,0.00,VWS V14.01,2013-08-14 17:10:00,
2013-08-14 10:15:00,75.6,41.1,-100.00,South,176,0.0,3.6,29,0.00,,,0.00,VWS V14.01,2013-08-14 17:15:00,
2013-08-14 10:20:00,76.5,40.0,-100.00,SW,227,2.2,4.0,27,0.00,,,0.00,VWS V14.01,2013-08-14 17:20:00,
2013-08-14 10:26:00,76.8,39.4,-100.00,NW,325,0.0,4.0,26,0.00,,,0.00,VWS V14.01,2013-08-14 17:26:00,
2013-08-14 10:31:00,77.0,39.5,-100.00,WSW,250,0.0,4.0,26,0.00,,,0.00,VWS V14.01,2013-08-14 17:31:00,
2013-08-14 10:36:00,77.5,40.0,-100.00,WSW,250,0.0,4.0,26,0.00,,,0.00,VWS V14.01,2013-08-14 17:36:00,
2013-08-14 10:41:00,78.3,40.6,-100.00,SSE,154,0.0,4.0,26,0.00,,,0.00,VWS V14.01,2013-08-14 17:41:00,
2013-08-14 10:46:00,78.6,39.9,-100.00,NNW,345,2.7,4.0,25,0.00,,,0.00,VWS V14.01,2013-08-14 17:46:00,
2013-08-14 10:51:00,79.2,40.3,-100.00,East,87,0.0,4.0,25,0.00,,,0.00,VWS V14.01,2013-08-14 17:51:00,
2013-08-14 10:57:00,79.3,39.5,-100.00,NNW,335,0.0,4.0,24,0.00,,,0.00,VWS V14.01,2013-08-14 17:57:00,
2013-08-14 11:02:00,79.3,39.5,-100.00,NNW,336,0.0,0.0,24,0.00,,,0.00,VWS V14.01,2013-08-14 18:02:00,
2013-08-14 11:07:00,79.9,39.9,-100.00,South,172,0.0,3.6,24,0.00,,,0.00,VWS V14.01,2013-08-14 18:07:00,
2013-08-14 11:12:00,80.4,40.4,-100.00,NNW,328,0.0,4.0,24,0.00,,,0.00,VWS V14.01,2013-08-14 18:12:00,
2013-08-14 11:17:00,80.4,39.3,-100.00,NNW,346,0.0,4.0,23,0.00,,,0.00,VWS V14.01,2013-08-14 18:17:00,
2013-08-14 11:22:00,80.8,39.6,-100.00,ENE,77,0.0,4.0,23,0.00,,,0.00,VWS V14.01,2013-08-14 18:22:00,
2013-08-14 11:27:00,81.3,40.0,-100.00,East,88,4.0,4.0,23,0.00,,,0.00,VWS V14.01,2013-08-14 18:27:00,
2013-08-14 11:33:00,82.2,39.6,-100.00,SE,138,0.0,4.0,22,0.00,,,0.00,VWS V14.01,2013-08-14 18:33:00,
2013-08-14 11:38:00,82.4,38.6,-100.00,East,89,3.6,4.0,21,0.00,,,0.00,VWS V14.01,2013-08-14 18:38:00,
2013-08-14 11:43:00,82.8,38.9,-100.00,NNW,337,4.0,4.0,21,0.00,,,0.00,VWS V14.01,2013-08-14 18:43:00,
2013-08-14 11:48:00,83.7,39.6,-100.00,WNW,287,0.0,4.0,21,0.00,,,0.00,VWS V14.01,2013-08-14 18:48:00,
2013-08-14 11:54:00,83.7,39.6,-100.00,NE,42,0.0,5.4,21,0.00,,,0.00,VWS V14.01,2013-08-14 18:54:00,
2013-08-14 11:59:00,83.1,39.2,-100.00,NNW,328,2.7,5.8,21,0.00,,,0.00,VWS V14.01,2013-08-14 18:59:00,
2013-08-14 12:04:00,82.9,39.0,-100.00,East,92,2.2,6.3,21,0.00,,,0.00,VWS V14.01,2013-08-14 19:04:00,
2013-08-14 12:12:00,83.8,39.8,-100.00,NW,320,0.0,6.3,21,0.00,,,0.00,VWS V14.01,2013-08-14 19:12:00,
2013-08-14 12:17:00,83.3,39.3,-100.00,NE,43,0.0,6.3,21,0.00,,,0.00,VWS V14.01,2013-08-14 19:17:00,
2013-08-14 12:22:00,84.2,38.8,-100.00,NE,55,0.0,6.3,20,0.00,,,0.00,VWS V14.01,2013-08-14 19:22:00,
2013-08-14 12:27:00,84.9,39.4,-100.00,ENE,73,0.0,6.3,20,0.00,,,0.00,VWS V14.01,2013-08-14 19:27:00,
2013-08-14 12:33:00,85.5,39.9,-100.00,ENE,77,0.0,6.3,20,0.00,,,0.00,VWS V14.01,2013-08-14 19:33:00,
2013-08-14 12:38:00,85.3,39.7,-100.00,West,281,0.0,6.3,20,0.00,,,0.00,VWS V14.01,2013-08-14 19:38:00,
2013-08-14 12:43:00,84.9,39.4,-100.00,ESE,107,0.0,6.3,20,0.00,,,0.00,VWS V14.01,2013-08-14 19:43:00,
2013-08-14 12:48:00,84.9,39.4,-100.00,WNW,293,0.0,6.3,20,0.00,,,0.00,VWS V14.01,2013-08-14 19:48:00,
2013-08-14 12:53:00,84.9,39.4,-100.00,North,353,0.0,6.3,20,0.00,,,0.00,VWS V14.01,2013-08-14 19:53:00,
2013-08-14 12:59:00,84.6,39.1,-100.00,East,91,2.2,6.3,20,0.00,,,0.00,VWS V14.01,2013-08-14 19:59:00,
2013-08-14 13:05:00,84.6,39.1,-100.00,NNE,22,0.0,3.1,20,0.00,,,0.00,VWS V14.01,2013-08-14 20:05:00,
2013-08-14 16:39:00,84.6,39.1,-100.00,East,87,0.0,3.1,20,0.00,,,0.00,VWS V14.01,2013-08-14 23:39:00,
2013-08-14 16:44:00,90.7,41.4,-100.00,NNW,338,2.7,7.2,18,0.00,,,0.00,VWS V14.01,2013-08-14 23:44:00,
2013-08-14 16:49:00,90.3,41.1,-100.00,NW,326,0.0,7.2,18,0.00,,,0.00,VWS V14.01,2013-08-14 23:49:00,
2013-08-14 16:54:00,90.5,41.3,-100.00,WSW,244,3.1,7.2,18,0.00,,,0.00,VWS V14.01,2013-08-14 23:54:00,
2013-08-14 16:59:00,90.3,41.1,-100.00,SW,227,5.4,7.2,18,0.00,,,0.00,VWS V14.01,2013-08-14 23:59:00,
2013-08-14 17:05:00,90.1,41.0,-100.00,NW,326,5.4,7.6,18,0.00,,,0.00,VWS V14.01,2013-08-15 00:05:00,
2013-08-14 17:10:00,90.1,41.0,-100.00,WSW,254,5.4,7.6,18,0.00,,,0.00,VWS V14.01,2013-08-15 00:10:00,
2013-08-14 17:15:00,90.1,41.0,-100.00,West,279,6.3,7.6,18,0.00,,,0.00,VWS V14.01,2013-08-15 00:15:00,
2013-08-14 17:21:00,89.6,40.5,-100.00,SSW,197,3.6,10.1,18,0.00,,,0.00,VWS V14.01,2013-08-15 00:21:00,
2013-08-14 17:26:00,89.4,40.4,-100.00,West,275,4.0,10.1,18,0.00,,,0.00,VWS V14.01,2013-08-15 00:26:00,
2013-08-14 17:31:00,89.6,40.5,-100.00,WSW,244,3.6,10.1,18,0.00,,,0.00,VWS V14.01,2013-08-15 00:31:00,
2013-08-14 17:37:00,89.2,40.2,-100.00,NNW,344,3.6,10.1,18,0.00,,,0.00,VWS V14.01,2013-08-15 00:37:00,
2013-08-14 17:42:00,88.3,39.5,-100.00,West,279,2.7,10.1,18,0.00,,,0.00,VWS V14.01,2013-08-15 00:42:00,
2013-08-14 17:47:00,87.8,39.1,-100.00,NW,323,4.0,10.1,18,0.00,,,0.00,VWS V14.01,2013-08-15 00:47:00,
2013-08-14 17:52:00,87.6,40.3,-100.00,WSW,252,6.3,10.1,19,0.00,,,0.00,VWS V14.01,2013-08-15 00:52:00,
2013-08-14 17:57:00,87.4,40.2,-100.00,WNW,289,5.4,10.1,19,0.00,,,0.00,VWS V14.01,2013-08-15 00:57:00,
2013-08-14 18:02:00,87.1,39.9,-100.00,NW,312,8.3,8.3,19,0.00,,,0.00,VWS V14.01,2013-08-15 01:02:00,
2013-08-14 18:08:00,87.1,39.9,-100.00,West,268,8.1,8.3,19,0.00,,,0.00,VWS V14.01,2013-08-15 01:08:00,
2013-08-14 18:13:00,86.7,39.6,-100.00,West,267,5.4,8.3,19,0.00,,,0.00,VWS V14.01,2013-08-15 01:13:00,
2013-08-14 18:19:00,85.8,38.8,-100.00,WSW,245,4.0,8.3,19,0.00,,,0.00,VWS V14.01,2013-08-15 01:19:00,
2013-08-14 18:24:00,85.3,38.4,-100.00,SW,223,5.8,8.3,19,0.00,,,0.00,VWS V14.01,2013-08-15 01:24:00,
2013-08-14 18:31:00,84.6,39.1,-100.00,West,260,2.7,8.3,20,0.00,,,0.00,VWS V14.01,2013-08-15 01:31:00,
2013-08-14 19:24:00,84.2,38.8,-100.00,WSW,254,3.1,8.3,20,0.00,,,0.00,VWS V14.01,2013-08-15 02:24:00,
2013-08-14 19:29:00,81.0,38.6,-100.00,SW,225,0.0,8.3,22,0.00,,,0.00,VWS V14.01,2013-08-15 02:29:00,
2013-08-14 19:34:00,80.6,38.3,-100.00,WSW,245,0.0,8.3,22,0.00,,,0.00,VWS V14.01,2013-08-15 02:34:00,
2013-08-14 19:39:00,80.2,39.1,-100.00,ENE,60,4.9,8.3,23,0.00,,,0.00,VWS V14.01,2013-08-15 02:39:00,
2013-08-14 19:44:00,79.7,38.7,-100.00,NNW,332,2.2,8.3,23,0.00,,,0.00,VWS V14.01,2013-08-15 02:44:00,
2013-08-14 19:49:00,79.3,38.4,-100.00,NNE,28,0.0,8.3,23,0.00,,,0.00,VWS V14.01,2013-08-15 02:49:00,
2013-08-14 19:55:00,78.8,39.0,-100.00,NNE,28,0.0,8.3,24,0.00,,,0.00,VWS V14.01,2013-08-15 02:55:00,
2013-08-14 20:00:00,78.3,39.6,-100.00,NNE,28,0.0,8.3,25,0.00,,,0.00,VWS V14.01,2013-08-15 03:00:00,
2013-08-14 23:48:00,77.5,39.0,-100.00,NNE,28,0.0,0.0,25,0.00,,,0.00,VWS V14.01,2013-08-15 06:48:00,
2013-08-14 23:49:00,67.3,38.7,-100.00,North,353,0.0,0.0,35,0.00,,,0.00,VWS V14.01,2013-08-15 06:49:00,
2013-08-14 23:54:00,67.3,38.7,-100.00,North,353,0.0,0.0,35,0.00,,,0.00,VWS V14.01,2013-08-15 06:54:00,
2013-08-14 23:59:00,67.1,38.6,-100.00,NNE,27,0.0,0.0,35,0.00,,,0.00,VWS V14.01,2013-08-15 06:59:00,